sensor_id;sensor_type;location;lat;lon;timestamp;P1;durP1;ratioP1;P2;durP2;ratioP2
54454;SDS011;40364;52.270;10.546;2022-12-18T00:00:57;23.42;;;11.25;;
54454;SDS011;40364;52.270;10.546;2022-12-18T00:03:24;28.13;;;12.00;;
54454;SDS011;40364;52.270;10.546;2022-12-18T00:05:53;26.17;;;11.57;;
54454;SDS011;40364;52.270;10.546;2022-12-18T00:08:19;27.48;;;11.80;;
54454;SDS011;40364;52.270;10.546;2022-12-18T00:10:46;29.17;;;13.00;;
54454;SDS011;40364;52.270;10.546;2022-12-18T00:13:13;28.95;;;12.15;;
54454;SDS011;40364;52.270;10.546;2022-12-18T00:15:40;21.73;;;11.35;;
54454;SDS011;40364;52.270;10.546;2022-12-18T00:18:06;24.17;;;11.55;;
54454;SDS011;40364;52.270;10.546;2022-12-18T00:20:35;30.05;;;12.82;;
54454;SDS011;40364;52.270;10.546;2022-12-18T00:23:04;26.88;;;11.40;;
54454;SDS011;40364;52.270;10.546;2022-12-18T00:25:32;24.88;;;11.80;;
54454;SDS011;40364;52.270;10.546;2022-12-18T00:28:00;23.65;;;11.90;;
54454;SDS011;40364;52.270;10.546;2022-12-18T00:30:27;25.05;;;12.27;;
54454;SDS011;40364;52.270;10.546;2022-12-18T00:32:54;22.65;;;11.52;;
54454;SDS011;40364;52.270;10.546;2022-12-18T00:35:20;22.20;;;11.30;;
54454;SDS011;40364;52.270;10.546;2022-12-18T00:37:48;21.25;;;11.07;;
54454;SDS011;40364;52.270;10.546;2022-12-18T00:40:16;24.33;;;11.65;;
54454;SDS011;40364;52.270;10.546;2022-12-18T00:42:43;22.42;;;10.63;;
54454;SDS011;40364;52.270;10.546;2022-12-18T00:45:20;28.27;;;12.77;;
54454;SDS011;40364;52.270;10.546;2022-12-18T00:47:47;23.52;;;11.70;;
54454;SDS011;40364;52.270;10.546;2022-12-18T00:50:14;25.17;;;11.75;;
54454;SDS011;40364;52.270;10.546;2022-12-18T00:52:41;27.85;;;11.18;;
54454;SDS011;40364;52.270;10.546;2022-12-18T00:55:08;19.42;;;10.77;;
54454;SDS011;40364;52.270;10.546;2022-12-18T00:57:36;22.15;;;9.73;;
54454;SDS011;40364;52.270;10.546;2022-12-18T01:00:04;27.85;;;11.82;;
54454;SDS011;40364;52.270;10.546;2022-12-18T01:02:32;26.45;;;12.27;;
54454;SDS011;40364;52.270;10.546;2022-12-18T01:04:58;28.23;;;12.73;;
54454;SDS011;40364;52.270;10.546;2022-12-18T01:07:25;28.25;;;10.27;;
54454;SDS011;40364;52.270;10.546;2022-12-18T01:09:52;23.65;;;11.50;;
54454;SDS011;40364;52.270;10.546;2022-12-18T01:12:19;28.83;;;12.40;;
54454;SDS011;40364;52.270;10.546;2022-12-18T01:14:47;22.23;;;12.02;;
54454;SDS011;40364;52.270;10.546;2022-12-18T01:19:41;30.15;;;12.38;;
54454;SDS011;40364;52.270;10.546;2022-12-18T01:22:07;26.48;;;12.27;;
54454;SDS011;40364;52.270;10.546;2022-12-18T01:24:34;27.35;;;12.02;;
54454;SDS011;40364;52.270;10.546;2022-12-18T01:27:01;25.88;;;11.43;;
54454;SDS011;40364;52.270;10.546;2022-12-18T01:29:27;20.58;;;10.77;;
54454;SDS011;40364;52.270;10.546;2022-12-18T01:31:56;22.67;;;10.50;;
54454;SDS011;40364;52.270;10.546;2022-12-18T01:34:23;29.67;;;13.00;;
54454;SDS011;40364;52.270;10.546;2022-12-18T01:36:50;28.92;;;13.98;;
54454;SDS011;40364;52.270;10.546;2022-12-18T01:39:17;28.75;;;12.07;;
54454;SDS011;40364;52.270;10.546;2022-12-18T01:41:45;21.42;;;10.90;;
54454;SDS011;40364;52.270;10.546;2022-12-18T01:47:26;26.08;;;12.73;;
54454;SDS011;40364;52.270;10.546;2022-12-18T01:49:58;22.35;;;10.65;;
54454;SDS011;40364;52.270;10.546;2022-12-18T01:52:30;22.52;;;11.20;;
54454;SDS011;40364;52.270;10.546;2022-12-18T01:54:59;20.13;;;9.50;;
54454;SDS011;40364;52.270;10.546;2022-12-18T01:57:28;20.42;;;10.00;;
54454;SDS011;40364;52.270;10.546;2022-12-18T01:59:56;23.92;;;11.52;;
54454;SDS011;40364;52.270;10.546;2022-12-18T02:02:28;16.08;;;9.10;;
54454;SDS011;40364;52.270;10.546;2022-12-18T02:04:56;22.13;;;10.30;;
54454;SDS011;40364;52.270;10.546;2022-12-18T02:07:25;23.30;;;9.95;;
54454;SDS011;40364;52.270;10.546;2022-12-18T02:09:58;23.10;;;11.45;;
54454;SDS011;40364;52.270;10.546;2022-12-18T02:12:29;23.15;;;10.90;;
54454;SDS011;40364;52.270;10.546;2022-12-18T02:15:05;22.95;;;11.65;;
54454;SDS011;40364;52.270;10.546;2022-12-18T02:17:41;22.97;;;11.20;;
54454;SDS011;40364;52.270;10.546;2022-12-18T02:20:12;20.77;;;9.98;;
54454;SDS011;40364;52.270;10.546;2022-12-18T02:22:45;31.40;;;11.95;;
54454;SDS011;40364;52.270;10.546;2022-12-18T02:25:26;25.25;;;11.38;;
54454;SDS011;40364;52.270;10.546;2022-12-18T02:28:13;25.73;;;11.43;;
54454;SDS011;40364;52.270;10.546;2022-12-18T02:30:44;29.17;;;10.88;;
54454;SDS011;40364;52.270;10.546;2022-12-18T02:33:13;20.35;;;10.20;;
54454;SDS011;40364;52.270;10.546;2022-12-18T02:35:41;26.08;;;12.23;;
54454;SDS011;40364;52.270;10.546;2022-12-18T02:38:10;26.55;;;11.90;;
54454;SDS011;40364;52.270;10.546;2022-12-18T02:40:38;25.48;;;12.02;;
54454;SDS011;40364;52.270;10.546;2022-12-18T02:43:09;26.42;;;9.88;;
54454;SDS011;40364;52.270;10.546;2022-12-18T02:45:47;26.45;;;10.50;;
54454;SDS011;40364;52.270;10.546;2022-12-18T02:48:16;31.08;;;11.40;;
54454;SDS011;40364;52.270;10.546;2022-12-18T02:50:45;21.38;;;10.30;;
54454;SDS011;40364;52.270;10.546;2022-12-18T02:53:21;18.85;;;10.10;;
54454;SDS011;40364;52.270;10.546;2022-12-18T02:55:57;29.25;;;10.90;;
54454;SDS011;40364;52.270;10.546;2022-12-18T02:58:30;24.88;;;10.65;;
54454;SDS011;40364;52.270;10.546;2022-12-18T03:01:06;27.05;;;12.23;;
54454;SDS011;40364;52.270;10.546;2022-12-18T03:03:39;30.15;;;11.60;;
54454;SDS011;40364;52.270;10.546;2022-12-18T03:06:10;22.20;;;10.23;;
54454;SDS011;40364;52.270;10.546;2022-12-18T03:08:44;25.27;;;10.82;;
54454;SDS011;40364;52.270;10.546;2022-12-18T03:11:14;24.95;;;10.52;;
54454;SDS011;40364;52.270;10.546;2022-12-18T03:14:01;20.40;;;10.23;;
54454;SDS011;40364;52.270;10.546;2022-12-18T03:16:33;20.70;;;9.93;;
54454;SDS011;40364;52.270;10.546;2022-12-18T03:19:02;26.20;;;10.10;;
54454;SDS011;40364;52.270;10.546;2022-12-18T03:21:33;20.15;;;10.25;;
54454;SDS011;40364;52.270;10.546;2022-12-18T03:24:05;22.63;;;9.43;;
54454;SDS011;40364;52.270;10.546;2022-12-18T03:26:34;21.65;;;10.55;;
54454;SDS011;40364;52.270;10.546;2022-12-18T03:29:06;26.52;;;10.00;;
54454;SDS011;40364;52.270;10.546;2022-12-18T03:31:37;24.45;;;10.65;;
54454;SDS011;40364;52.270;10.546;2022-12-18T03:34:08;20.45;;;10.13;;
54454;SDS011;40364;52.270;10.546;2022-12-18T03:36:39;19.52;;;9.18;;
54454;SDS011;40364;52.270;10.546;2022-12-18T03:39:06;23.45;;;9.70;;
54454;SDS011;40364;52.270;10.546;2022-12-18T03:41:33;20.20;;;10.18;;
54454;SDS011;40364;52.270;10.546;2022-12-18T03:44:09;28.02;;;9.95;;
54454;SDS011;40364;52.270;10.546;2022-12-18T03:46:42;19.25;;;8.82;;
54454;SDS011;40364;52.270;10.546;2022-12-18T03:49:14;20.65;;;9.73;;
54454;SDS011;40364;52.270;10.546;2022-12-18T03:54:19;20.00;;;9.43;;
54454;SDS011;40364;52.270;10.546;2022-12-18T03:56:48;19.10;;;9.80;;
54454;SDS011;40364;52.270;10.546;2022-12-18T03:59:20;16.73;;;8.55;;
54454;SDS011;40364;52.270;10.546;2022-12-18T04:01:49;22.08;;;9.80;;
54454;SDS011;40364;52.270;10.546;2022-12-18T04:04:19;16.52;;;7.50;;
54454;SDS011;40364;52.270;10.546;2022-12-18T04:06:48;14.98;;;7.28;;
54454;SDS011;40364;52.270;10.546;2022-12-18T04:09:16;22.35;;;8.38;;
54454;SDS011;40364;52.270;10.546;2022-12-18T04:11:44;17.88;;;8.00;;
54454;SDS011;40364;52.270;10.546;2022-12-18T04:14:12;18.52;;;8.88;;
54454;SDS011;40364;52.270;10.546;2022-12-18T04:16:39;17.70;;;8.43;;
54454;SDS011;40364;52.270;10.546;2022-12-18T04:19:07;18.02;;;7.72;;
54454;SDS011;40364;52.270;10.546;2022-12-18T04:21:34;16.35;;;8.73;;
54454;SDS011;40364;52.270;10.546;2022-12-18T04:24:00;21.17;;;8.88;;
54454;SDS011;40364;52.270;10.546;2022-12-18T04:26:27;20.58;;;9.30;;
54454;SDS011;40364;52.270;10.546;2022-12-18T04:28:53;18.85;;;9.15;;
54454;SDS011;40364;52.270;10.546;2022-12-18T04:31:20;20.27;;;9.65;;
54454;SDS011;40364;52.270;10.546;2022-12-18T04:33:47;23.90;;;8.48;;
54454;SDS011;40364;52.270;10.546;2022-12-18T04:36:15;19.27;;;9.38;;
54454;SDS011;40364;52.270;10.546;2022-12-18T04:38:42;20.02;;;8.90;;
54454;SDS011;40364;52.270;10.546;2022-12-18T04:41:08;21.05;;;9.48;;
54454;SDS011;40364;52.270;10.546;2022-12-18T04:43:35;16.67;;;8.80;;
54454;SDS011;40364;52.270;10.546;2022-12-18T04:46:02;19.38;;;8.35;;
54454;SDS011;40364;52.270;10.546;2022-12-18T04:48:30;22.23;;;10.57;;
54454;SDS011;40364;52.270;10.546;2022-12-18T04:50:57;18.60;;;8.93;;
54454;SDS011;40364;52.270;10.546;2022-12-18T04:53:25;18.00;;;8.20;;
54454;SDS011;40364;52.270;10.546;2022-12-18T04:56:01;16.05;;;8.02;;
54454;SDS011;40364;52.270;10.546;2022-12-18T04:58:29;18.88;;;8.68;;
54454;SDS011;40364;52.270;10.546;2022-12-18T05:00:56;20.23;;;9.77;;
54454;SDS011;40364;52.270;10.546;2022-12-18T05:03:22;22.83;;;8.60;;
54454;SDS011;40364;52.270;10.546;2022-12-18T05:05:49;17.65;;;8.70;;
54454;SDS011;40364;52.270;10.546;2022-12-18T05:08:16;21.98;;;9.57;;
54454;SDS011;40364;52.270;10.546;2022-12-18T05:10:44;30.27;;;13.60;;
54454;SDS011;40364;52.270;10.546;2022-12-18T05:13:10;20.35;;;9.07;;
54454;SDS011;40364;52.270;10.546;2022-12-18T05:15:37;23.17;;;9.75;;
54454;SDS011;40364;52.270;10.546;2022-12-18T05:18:04;22.67;;;9.32;;
54454;SDS011;40364;52.270;10.546;2022-12-18T05:20:31;18.20;;;7.72;;
54454;SDS011;40364;52.270;10.546;2022-12-18T05:22:57;23.23;;;10.55;;
54454;SDS011;40364;52.270;10.546;2022-12-18T05:25:24;25.85;;;10.10;;
54454;SDS011;40364;52.270;10.546;2022-12-18T05:27:52;21.95;;;9.27;;
54454;SDS011;40364;52.270;10.546;2022-12-18T05:30:19;24.10;;;9.88;;
54454;SDS011;40364;52.270;10.546;2022-12-18T05:32:46;18.00;;;7.97;;
54454;SDS011;40364;52.270;10.546;2022-12-18T05:35:12;19.05;;;10.05;;
54454;SDS011;40364;52.270;10.546;2022-12-18T05:37:39;18.73;;;8.50;;
54454;SDS011;40364;52.270;10.546;2022-12-18T05:40:06;26.20;;;9.60;;
54454;SDS011;40364;52.270;10.546;2022-12-18T05:42:33;19.80;;;9.73;;
54454;SDS011;40364;52.270;10.546;2022-12-18T05:45:02;23.83;;;9.15;;
54454;SDS011;40364;52.270;10.546;2022-12-18T05:47:29;20.95;;;7.78;;
54454;SDS011;40364;52.270;10.546;2022-12-18T05:49:55;21.10;;;9.55;;
54454;SDS011;40364;52.270;10.546;2022-12-18T05:52:23;24.20;;;9.15;;
54454;SDS011;40364;52.270;10.546;2022-12-18T05:54:49;27.58;;;9.23;;
54454;SDS011;40364;52.270;10.546;2022-12-18T05:57:16;20.67;;;8.15;;
54454;SDS011;40364;52.270;10.546;2022-12-18T05:59:43;23.02;;;10.85;;
54454;SDS011;40364;52.270;10.546;2022-12-18T06:02:11;27.63;;;10.45;;
54454;SDS011;40364;52.270;10.546;2022-12-18T06:04:37;27.92;;;9.23;;
54454;SDS011;40364;52.270;10.546;2022-12-18T06:07:04;28.35;;;10.60;;
54454;SDS011;40364;52.270;10.546;2022-12-18T06:09:31;22.45;;;9.45;;
54454;SDS011;40364;52.270;10.546;2022-12-18T06:11:58;34.28;;;11.52;;
54454;SDS011;40364;52.270;10.546;2022-12-18T06:14:25;31.70;;;11.85;;
54454;SDS011;40364;52.270;10.546;2022-12-18T06:16:51;17.20;;;8.48;;
54454;SDS011;40364;52.270;10.546;2022-12-18T06:19:19;22.42;;;10.70;;
54454;SDS011;40364;52.270;10.546;2022-12-18T06:21:46;23.50;;;10.07;;
54454;SDS011;40364;52.270;10.546;2022-12-18T06:24:14;19.52;;;9.45;;
54454;SDS011;40364;52.270;10.546;2022-12-18T06:26:41;21.00;;;10.35;;
54454;SDS011;40364;52.270;10.546;2022-12-18T06:29:07;25.60;;;10.70;;
54454;SDS011;40364;52.270;10.546;2022-12-18T06:31:34;20.00;;;9.70;;
54454;SDS011;40364;52.270;10.546;2022-12-18T06:34:01;23.95;;;10.30;;
54454;SDS011;40364;52.270;10.546;2022-12-18T06:36:41;28.80;;;10.15;;
54454;SDS011;40364;52.270;10.546;2022-12-18T06:39:07;20.73;;;9.82;;
54454;SDS011;40364;52.270;10.546;2022-12-18T06:41:34;32.30;;;9.82;;
54454;SDS011;40364;52.270;10.546;2022-12-18T06:44:01;31.50;;;11.30;;
54454;SDS011;40364;52.270;10.546;2022-12-18T06:46:28;32.20;;;11.32;;
54454;SDS011;40364;52.270;10.546;2022-12-18T06:48:54;25.70;;;9.97;;
54454;SDS011;40364;52.270;10.546;2022-12-18T06:51:21;20.60;;;9.15;;
54454;SDS011;40364;52.270;10.546;2022-12-18T06:53:50;18.42;;;9.13;;
54454;SDS011;40364;52.270;10.546;2022-12-18T06:56:17;21.52;;;10.13;;
54454;SDS011;40364;52.270;10.546;2022-12-18T06:58:47;16.90;;;9.18;;
54454;SDS011;40364;52.270;10.546;2022-12-18T07:01:14;19.77;;;9.05;;
54454;SDS011;40364;52.270;10.546;2022-12-18T07:03:40;18.85;;;8.82;;
54454;SDS011;40364;52.270;10.546;2022-12-18T07:06:12;20.83;;;8.80;;
54454;SDS011;40364;52.270;10.546;2022-12-18T07:08:40;23.60;;;8.52;;
54454;SDS011;40364;52.270;10.546;2022-12-18T07:11:08;21.15;;;8.35;;
54454;SDS011;40364;52.270;10.546;2022-12-18T07:13:35;19.23;;;9.23;;
54454;SDS011;40364;52.270;10.546;2022-12-18T07:16:05;20.75;;;8.73;;
54454;SDS011;40364;52.270;10.546;2022-12-18T07:18:33;21.52;;;9.15;;
54454;SDS011;40364;52.270;10.546;2022-12-18T07:21:02;21.40;;;8.63;;
54454;SDS011;40364;52.270;10.546;2022-12-18T07:23:29;27.73;;;9.18;;
54454;SDS011;40364;52.270;10.546;2022-12-18T07:26:00;19.23;;;8.38;;
54454;SDS011;40364;52.270;10.546;2022-12-18T07:28:30;27.02;;;10.43;;
54454;SDS011;40364;52.270;10.546;2022-12-18T07:30:57;21.10;;;9.23;;
54454;SDS011;40364;52.270;10.546;2022-12-18T07:33:25;23.95;;;9.18;;
54454;SDS011;40364;52.270;10.546;2022-12-18T07:35:52;16.75;;;8.95;;
54454;SDS011;40364;52.270;10.546;2022-12-18T07:38:19;20.23;;;9.25;;
54454;SDS011;40364;52.270;10.546;2022-12-18T07:40:45;28.75;;;10.57;;
54454;SDS011;40364;52.270;10.546;2022-12-18T07:43:12;25.42;;;9.45;;
54454;SDS011;40364;52.270;10.546;2022-12-18T07:45:41;31.40;;;10.45;;
54454;SDS011;40364;52.270;10.546;2022-12-18T07:48:08;25.00;;;10.35;;
54454;SDS011;40364;52.270;10.546;2022-12-18T07:50:35;23.77;;;9.50;;
54454;SDS011;40364;52.270;10.546;2022-12-18T07:53:02;27.35;;;10.48;;
54454;SDS011;40364;52.270;10.546;2022-12-18T07:55:29;24.77;;;10.05;;
54454;SDS011;40364;52.270;10.546;2022-12-18T07:57:56;18.70;;;8.68;;
54454;SDS011;40364;52.270;10.546;2022-12-18T08:00:23;21.63;;;9.57;;
54454;SDS011;40364;52.270;10.546;2022-12-18T08:02:51;21.08;;;10.52;;
54454;SDS011;40364;52.270;10.546;2022-12-18T08:05:18;23.42;;;8.95;;
54454;SDS011;40364;52.270;10.546;2022-12-18T08:07:45;21.17;;;10.93;;
54454;SDS011;40364;52.270;10.546;2022-12-18T08:10:12;23.88;;;10.00;;
54454;SDS011;40364;52.270;10.546;2022-12-18T08:12:39;31.73;;;11.07;;
54454;SDS011;40364;52.270;10.546;2022-12-18T08:15:06;25.40;;;10.05;;
54454;SDS011;40364;52.270;10.546;2022-12-18T08:17:34;23.20;;;9.65;;
54454;SDS011;40364;52.270;10.546;2022-12-18T08:20:02;25.10;;;8.68;;
54454;SDS011;40364;52.270;10.546;2022-12-18T08:22:29;25.92;;;9.25;;
54454;SDS011;40364;52.270;10.546;2022-12-18T08:24:56;32.33;;;9.77;;
54454;SDS011;40364;52.270;10.546;2022-12-18T08:27:23;22.40;;;10.90;;
54454;SDS011;40364;52.270;10.546;2022-12-18T08:29:50;18.02;;;8.38;;
54454;SDS011;40364;52.270;10.546;2022-12-18T08:32:16;19.75;;;9.15;;
54454;SDS011;40364;52.270;10.546;2022-12-18T08:34:43;14.93;;;8.48;;
54454;SDS011;40364;52.270;10.546;2022-12-18T08:37:11;24.00;;;10.73;;
54454;SDS011;40364;52.270;10.546;2022-12-18T08:39:38;21.02;;;8.60;;
54454;SDS011;40364;52.270;10.546;2022-12-18T08:42:04;20.50;;;8.57;;
54454;SDS011;40364;52.270;10.546;2022-12-18T08:44:48;17.35;;;8.20;;
54454;SDS011;40364;52.270;10.546;2022-12-18T08:47:15;25.17;;;8.45;;
54454;SDS011;40364;52.270;10.546;2022-12-18T08:49:42;28.58;;;10.20;;
54454;SDS011;40364;52.270;10.546;2022-12-18T08:52:08;19.15;;;9.27;;
54454;SDS011;40364;52.270;10.546;2022-12-18T08:54:37;16.25;;;7.55;;
54454;SDS011;40364;52.270;10.546;2022-12-18T08:57:04;19.63;;;7.28;;
54454;SDS011;40364;52.270;10.546;2022-12-18T08:59:30;24.40;;;11.18;;
54454;SDS011;40364;52.270;10.546;2022-12-18T09:01:57;24.58;;;10.73;;
54454;SDS011;40364;52.270;10.546;2022-12-18T09:04:24;19.50;;;8.70;;
54454;SDS011;40364;52.270;10.546;2022-12-18T09:06:50;26.35;;;10.05;;
54454;SDS011;40364;52.270;10.546;2022-12-18T09:09:24;23.50;;;8.93;;
54454;SDS011;40364;52.270;10.546;2022-12-18T09:11:52;22.42;;;9.25;;
54454;SDS011;40364;52.270;10.546;2022-12-18T09:14:19;19.83;;;8.68;;
54454;SDS011;40364;52.270;10.546;2022-12-18T09:16:46;19.13;;;9.13;;
54454;SDS011;40364;52.270;10.546;2022-12-18T09:19:12;21.73;;;8.88;;
54454;SDS011;40364;52.270;10.546;2022-12-18T09:21:39;27.38;;;9.85;;
54454;SDS011;40364;52.270;10.546;2022-12-18T09:24:06;27.35;;;9.25;;
54454;SDS011;40364;52.270;10.546;2022-12-18T09:26:37;21.60;;;10.43;;
54454;SDS011;40364;52.270;10.546;2022-12-18T09:29:05;28.15;;;9.93;;
54454;SDS011;40364;52.270;10.546;2022-12-18T09:31:33;22.73;;;10.45;;
54454;SDS011;40364;52.270;10.546;2022-12-18T09:34:01;27.42;;;9.05;;
54454;SDS011;40364;52.270;10.546;2022-12-18T09:36:42;17.50;;;8.98;;
54454;SDS011;40364;52.270;10.546;2022-12-18T09:39:09;21.60;;;9.90;;
54454;SDS011;40364;52.270;10.546;2022-12-18T09:41:40;19.05;;;8.45;;
54454;SDS011;40364;52.270;10.546;2022-12-18T09:44:13;25.58;;;10.00;;
54454;SDS011;40364;52.270;10.546;2022-12-18T09:46:47;22.30;;;9.98;;
54454;SDS011;40364;52.270;10.546;2022-12-18T09:49:17;23.85;;;9.40;;
54454;SDS011;40364;52.270;10.546;2022-12-18T09:51:49;18.90;;;9.38;;
54454;SDS011;40364;52.270;10.546;2022-12-18T09:54:20;19.05;;;8.32;;
54454;SDS011;40364;52.270;10.546;2022-12-18T09:56:50;25.60;;;9.25;;
54454;SDS011;40364;52.270;10.546;2022-12-18T09:59:21;23.77;;;10.00;;
54454;SDS011;40364;52.270;10.546;2022-12-18T10:01:50;23.45;;;9.30;;
54454;SDS011;40364;52.270;10.546;2022-12-18T10:04:17;21.30;;;9.30;;
54454;SDS011;40364;52.270;10.546;2022-12-18T10:06:45;19.13;;;9.45;;
54454;SDS011;40364;52.270;10.546;2022-12-18T10:09:20;17.48;;;8.07;;
54454;SDS011;40364;52.270;10.546;2022-12-18T10:11:55;30.17;;;8.68;;
54454;SDS011;40364;52.270;10.546;2022-12-18T10:14:32;24.20;;;9.32;;
54454;SDS011;40364;52.270;10.546;2022-12-18T10:17:07;28.02;;;11.40;;
54454;SDS011;40364;52.270;10.546;2022-12-18T10:19:45;20.15;;;8.52;;
54454;SDS011;40364;52.270;10.546;2022-12-18T10:22:23;20.92;;;8.00;;
54454;SDS011;40364;52.270;10.546;2022-12-18T10:25:03;18.98;;;8.43;;
54454;SDS011;40364;52.270;10.546;2022-12-18T10:27:33;23.92;;;7.85;;
54454;SDS011;40364;52.270;10.546;2022-12-18T10:30:04;18.42;;;8.13;;
54454;SDS011;40364;52.270;10.546;2022-12-18T10:32:38;16.70;;;7.50;;
54454;SDS011;40364;52.270;10.546;2022-12-18T10:35:09;23.30;;;8.00;;
54454;SDS011;40364;52.270;10.546;2022-12-18T10:38:02;16.95;;;6.75;;
54454;SDS011;40364;52.270;10.546;2022-12-18T10:40:30;15.73;;;7.05;;
54454;SDS011;40364;52.270;10.546;2022-12-18T10:43:04;21.75;;;8.07;;
54454;SDS011;40364;52.270;10.546;2022-12-18T10:45:36;21.30;;;8.52;;
54454;SDS011;40364;52.270;10.546;2022-12-18T10:48:03;21.48;;;8.57;;
54454;SDS011;40364;52.270;10.546;2022-12-18T10:50:31;17.05;;;7.88;;
54454;SDS011;40364;52.270;10.546;2022-12-18T10:53:01;17.02;;;8.38;;
54454;SDS011;40364;52.270;10.546;2022-12-18T10:55:39;19.23;;;7.25;;
54454;SDS011;40364;52.270;10.546;2022-12-18T10:58:20;15.70;;;7.68;;
54454;SDS011;40364;52.270;10.546;2022-12-18T11:03:41;18.90;;;8.43;;
54454;SDS011;40364;52.270;10.546;2022-12-18T11:06:10;18.05;;;8.85;;
54454;SDS011;40364;52.270;10.546;2022-12-18T11:08:38;20.00;;;8.77;;
54454;SDS011;40364;52.270;10.546;2022-12-18T11:11:07;25.23;;;9.57;;
54454;SDS011;40364;52.270;10.546;2022-12-18T11:13:48;18.98;;;8.45;;
54454;SDS011;40364;52.270;10.546;2022-12-18T11:16:32;22.77;;;9.27;;
54454;SDS011;40364;52.270;10.546;2022-12-18T11:19:10;19.95;;;9.13;;
54454;SDS011;40364;52.270;10.546;2022-12-18T11:21:47;21.65;;;8.57;;
54454;SDS011;40364;52.270;10.546;2022-12-18T11:24:19;20.17;;;9.25;;
54454;SDS011;40364;52.270;10.546;2022-12-18T11:26:49;20.17;;;9.77;;
54454;SDS011;40364;52.270;10.546;2022-12-18T11:29:16;22.50;;;9.00;;
54454;SDS011;40364;52.270;10.546;2022-12-18T11:31:46;22.27;;;9.15;;
54454;SDS011;40364;52.270;10.546;2022-12-18T11:34:14;21.65;;;9.63;;
54454;SDS011;40364;52.270;10.546;2022-12-18T11:36:46;18.75;;;8.95;;
54454;SDS011;40364;52.270;10.546;2022-12-18T11:39:15;22.52;;;10.15;;
54454;SDS011;40364;52.270;10.546;2022-12-18T11:41:47;22.80;;;10.23;;
54454;SDS011;40364;52.270;10.546;2022-12-18T11:44:38;24.20;;;10.18;;
54454;SDS011;40364;52.270;10.546;2022-12-18T11:47:12;29.80;;;10.75;;
54454;SDS011;40364;52.270;10.546;2022-12-18T11:49:45;18.50;;;9.60;;
54454;SDS011;40364;52.270;10.546;2022-12-18T11:52:16;25.52;;;10.60;;
54454;SDS011;40364;52.270;10.546;2022-12-18T11:54:47;19.80;;;9.63;;
54454;SDS011;40364;52.270;10.546;2022-12-18T11:57:19;25.05;;;10.15;;
54454;SDS011;40364;52.270;10.546;2022-12-18T11:59:56;20.23;;;8.80;;
54454;SDS011;40364;52.270;10.546;2022-12-18T12:02:36;16.30;;;8.23;;
54454;SDS011;40364;52.270;10.546;2022-12-18T12:05:25;21.52;;;8.73;;
54454;SDS011;40364;52.270;10.546;2022-12-18T12:08:00;18.75;;;8.82;;
54454;SDS011;40364;52.270;10.546;2022-12-18T12:10:36;19.92;;;8.63;;
54454;SDS011;40364;52.270;10.546;2022-12-18T12:13:16;17.45;;;8.20;;
54454;SDS011;40364;52.270;10.546;2022-12-18T12:15:56;17.45;;;7.93;;
54454;SDS011;40364;52.270;10.546;2022-12-18T12:18:34;17.52;;;7.53;;
54454;SDS011;40364;52.270;10.546;2022-12-18T12:21:13;12.38;;;7.07;;
54454;SDS011;40364;52.270;10.546;2022-12-18T12:23:47;17.17;;;6.90;;
54454;SDS011;40364;52.270;10.546;2022-12-18T12:26:21;16.60;;;7.57;;
54454;SDS011;40364;52.270;10.546;2022-12-18T12:28:59;12.85;;;7.10;;
54454;SDS011;40364;52.270;10.546;2022-12-18T12:31:44;17.27;;;7.97;;
54454;SDS011;40364;52.270;10.546;2022-12-18T12:34:22;13.88;;;6.93;;
54454;SDS011;40364;52.270;10.546;2022-12-18T12:37:05;16.75;;;7.53;;
54454;SDS011;40364;52.270;10.546;2022-12-18T12:39:42;14.25;;;7.05;;
54454;SDS011;40364;52.270;10.546;2022-12-18T12:42:14;13.30;;;6.82;;
54454;SDS011;40364;52.270;10.546;2022-12-18T12:45:03;13.95;;;6.65;;
54454;SDS011;40364;52.270;10.546;2022-12-18T12:47:33;14.93;;;7.05;;
54454;SDS011;40364;52.270;10.546;2022-12-18T12:50:06;13.88;;;6.88;;
54454;SDS011;40364;52.270;10.546;2022-12-18T12:52:41;13.23;;;6.28;;
54454;SDS011;40364;52.270;10.546;2022-12-18T12:55:13;14.00;;;6.20;;
54454;SDS011;40364;52.270;10.546;2022-12-18T12:57:45;11.73;;;6.03;;
54454;SDS011;40364;52.270;10.546;2022-12-18T13:00:15;16.02;;;6.70;;
54454;SDS011;40364;52.270;10.546;2022-12-18T13:02:46;14.35;;;6.13;;
54454;SDS011;40364;52.270;10.546;2022-12-18T13:05:21;15.05;;;6.18;;
54454;SDS011;40364;52.270;10.546;2022-12-18T13:07:53;13.93;;;6.65;;
54454;SDS011;40364;52.270;10.546;2022-12-18T13:10:23;11.45;;;6.13;;
54454;SDS011;40364;52.270;10.546;2022-12-18T13:12:53;15.00;;;5.78;;
54454;SDS011;40364;52.270;10.546;2022-12-18T13:15:21;12.30;;;6.15;;
54454;SDS011;40364;52.270;10.546;2022-12-18T13:18:02;13.48;;;6.63;;
54454;SDS011;40364;52.270;10.546;2022-12-18T13:20:36;17.92;;;6.45;;
54454;SDS011;40364;52.270;10.546;2022-12-18T13:23:18;14.30;;;6.93;;
54454;SDS011;40364;52.270;10.546;2022-12-18T13:25:53;16.63;;;6.88;;
54454;SDS011;40364;52.270;10.546;2022-12-18T13:28:21;11.35;;;5.20;;
54454;SDS011;40364;52.270;10.546;2022-12-18T13:30:51;11.10;;;5.78;;
54454;SDS011;40364;52.270;10.546;2022-12-18T13:36:23;9.00;;;4.70;;
54454;SDS011;40364;52.270;10.546;2022-12-18T13:39:09;8.20;;;4.65;;
54454;SDS011;40364;52.270;10.546;2022-12-18T13:41:47;11.23;;;5.47;;
54454;SDS011;40364;52.270;10.546;2022-12-18T13:44:21;11.43;;;5.43;;
54454;SDS011;40364;52.270;10.546;2022-12-18T13:46:52;14.90;;;5.80;;
54454;SDS011;40364;52.270;10.546;2022-12-18T13:49:21;16.27;;;6.72;;
54454;SDS011;40364;52.270;10.546;2022-12-18T13:51:54;16.55;;;6.97;;
54454;SDS011;40364;52.270;10.546;2022-12-18T13:54:24;15.65;;;6.10;;
54454;SDS011;40364;52.270;10.546;2022-12-18T13:56:55;19.00;;;6.82;;
54454;SDS011;40364;52.270;10.546;2022-12-18T13:59:22;14.82;;;7.30;;
54454;SDS011;40364;52.270;10.546;2022-12-18T14:01:51;23.10;;;8.13;;
54454;SDS011;40364;52.270;10.546;2022-12-18T14:04:21;17.70;;;8.95;;
54454;SDS011;40364;52.270;10.546;2022-12-18T14:06:51;15.02;;;7.82;;
54454;SDS011;40364;52.270;10.546;2022-12-18T14:09:24;19.73;;;8.02;;
54454;SDS011;40364;52.270;10.546;2022-12-18T14:11:53;18.58;;;7.80;;
54454;SDS011;40364;52.270;10.546;2022-12-18T14:14:43;26.50;;;9.02;;
54454;SDS011;40364;52.270;10.546;2022-12-18T14:17:12;20.48;;;9.73;;
54454;SDS011;40364;52.270;10.546;2022-12-18T14:19:41;21.20;;;8.63;;
54454;SDS011;40364;52.270;10.546;2022-12-18T14:22:18;19.92;;;8.15;;
54454;SDS011;40364;52.270;10.546;2022-12-18T14:24:46;17.20;;;8.73;;
54454;SDS011;40364;52.270;10.546;2022-12-18T14:27:21;22.60;;;9.32;;
54454;SDS011;40364;52.270;10.546;2022-12-18T14:29:51;20.58;;;8.05;;
54454;SDS011;40364;52.270;10.546;2022-12-18T14:32:18;18.30;;;9.15;;
54454;SDS011;40364;52.270;10.546;2022-12-18T14:34:47;20.00;;;8.82;;
54454;SDS011;40364;52.270;10.546;2022-12-18T14:37:15;19.80;;;8.48;;
54454;SDS011;40364;52.270;10.546;2022-12-18T14:39:54;15.52;;;7.30;;
54454;SDS011;40364;52.270;10.546;2022-12-18T14:42:23;22.25;;;8.18;;
54454;SDS011;40364;52.270;10.546;2022-12-18T14:47:53;14.15;;;6.78;;
54454;SDS011;40364;52.270;10.546;2022-12-18T14:50:20;17.75;;;6.55;;